Time;durP1;ratioP1;P1;durP2;ratioP2;P2;SDS_P1;SDS_P2;PMS_P1;PMS_P2;Temp;Humidity;BMP_temperature;BMP_pressure;BME280_temperature;BME280_humidity;BME280_pressure;Samples;Min_cycle;Max_cycle;Signal;HPM_P1;HPM_P2
2023/07/09 00:02:16;;;;;;;;;;;;;;;;;;4996315;28;19929;-92
2023/07/09 00:04:42;;;;;;;;;;;;;;;;;;4995870;28;19976;-92
2023/07/09 00:07:07;;;;;;;;;;;;;;;;;;4997310;28;19932;-91
2023/07/09 00:09:33;;;;;;;;;;;;;;;;;;4995688;28;19928;-92
2023/07/09 00:11:59;;;;;;;;;;;;;;;;;;4996026;28;19948;-92
2023/07/09 00:14:25;;;;;;;;;;;;;;;;;;4995777;28;19961;-91
2023/07/09 00:16:51;;;;;;;;;;;;;;;;;;4995392;28;20373;-91
2023/07/09 00:19:18;;;;;;;;;;;;;;;;;;4995321;28;19921;-91
2023/07/09 00:21:45;;;;;;;;;;;;;;;;;;4995325;28;19933;-93
2023/07/09 00:24:10;;;;;;;;;;;;;;;;;;4996940;28;19926;-92
2023/07/09 00:26:38;;;;;;;;;;;;;;;;;;4995785;28;20310;-92
2023/07/09 00:29:03;;;;;;;;;;;;;;;;;;4995557;28;20272;-91
2023/07/09 00:31:29;;;;;;;;;;;;;;;;;;4995611;28;20015;-92
2023/07/09 00:33:55;;;;;;;;;;;;;;;;;;4995377;28;19972;-92
2023/07/09 00:36:22;;;;;;;;;;;;;;;;;;4995527;28;19921;-92
2023/07/09 00:38:48;;;;;;;;;;;;;;;;;;4995720;28;20016;-93
2023/07/09 00:41:17;;;;;;;;;;;;;;;;;;4995256;28;20027;-92
2023/07/09 00:43:43;;;;;;;;;;;;;;;;;;4996527;28;19922;-92
2023/07/09 00:46:09;;;;;;;;;;;;;;;;;;4995277;28;20013;-93
2023/07/09 00:48:35;;;;;;;;;;;;;;;;;;4978905;28;20370;-92
2023/07/09 00:51:01;;;;;;;;;;;;;;;;;;4995032;28;19922;-94
2023/07/09 00:53:26;;;;;;;;;;;;;;;;;;4995199;28;19929;-92
2023/07/09 00:55:53;;;;;;;;;;;;;;;;;;4996005;28;19951;-91
2023/07/09 00:58:18;;;;;;;;;;;;;;;;;;4996283;28;19922;-91
2023/07/09 01:00:47;;;;;;;;;;;;;;;;;;4978371;28;20016;-92
2023/07/09 01:03:16;;;;;;;;;;;;;;;;;;4994804;28;19933;-92
2023/07/09 01:05:43;;;;;;;;;;;;;;;;;;4994532;28;19972;-92
2023/07/09 01:08:09;;;;;;;;;;;;;;;;;;4978352;28;19926;-92
2023/07/09 01:10:35;;;;;;;;;;;;;;;;;;4994586;28;19972;-92
2023/07/09 01:13:01;;;;;;;;;;;;;;;;;;4994682;28;19929;-92
2023/07/09 01:15:27;;;;;;;;;;;;;;;;;;4995726;28;19929;-91
2023/07/09 01:17:53;;;;;;;;;;;;;;;;;;4996155;28;19930;-93
2023/07/09 01:20:20;;;;;;;;;;;;;;;;;;4978312;28;20028;-92
2023/07/09 01:22:48;;;;;;;;;;;;;;;;;;4995998;28;19922;-93
2023/07/09 01:25:14;;;;;;;;;;;;;;;;;;4978158;28;19925;-93
2023/07/09 01:27:40;;;;;;;;;;;;;;;;;;4994703;28;19933;-92
2023/07/09 01:30:06;;;;;;;;;;;;;;;;;;4978446;28;19968;-94
2023/07/09 01:32:33;;;;;;;;;;;;;;;;;;4994541;28;19922;-93
2023/07/09 01:35:04;;;;;;;;;;;;;;;;;;4994719;28;20369;-92
2023/07/09 01:37:30;;;;;;;;;;;;;;;;;;4978417;28;19929;-92
2023/07/09 01:39:56;;;;;;;;;;;;;;;;;;4994343;28;19922;-92
2023/07/09 01:42:22;;;;;;;;;;;;;;;;;;4995323;28;19975;-91
2023/07/09 01:44:49;;;;;;;;;;;;;;;;;;4977985;28;20036;-92
2023/07/09 01:47:15;;;;;;;;;;;;;;;;;;4993427;28;19930;-92
2023/07/09 01:49:41;;;;;;;;;;;;;;;;;;4994379;28;19981;-93
2023/07/09 01:52:08;;;;;;;;;;;;;;;;;;4994131;28;19977;-92
2023/07/09 01:54:37;;;;;;;;;;;;;;;;;;4978101;28;19925;-92
2023/07/09 01:57:03;;;;;;;;;;;;;;;;;;4993723;28;20339;-91
2023/07/09 01:59:29;;;;;;;;;;;;;;;;;;4977483;28;19921;-91
2023/07/09 02:01:57;;;;;;;;;;;;;;;;;;4977533;28;19929;-92
2023/07/09 02:04:27;;;;;;;;;;;;;;;;;;4994103;28;19922;-93
2023/07/09 02:06:53;;;;;;;;;;;;;;;;;;4994037;28;20004;-94
2023/07/09 02:09:18;;;;;;;;;;;;;;;;;;4995792;28;20366;-94
2023/07/09 02:11:44;;;;;;;;;;;;;;;;;;4977727;28;19980;-94
2023/07/09 02:14:10;;;;;;;;;;;;;;;;;;4996236;28;19928;-93
2023/07/09 02:16:36;;;;;;;;;;;;;;;;;;4998135;28;20445;-94
2023/07/09 02:19:02;;;;;;;;;;;;;;;;;;4994201;28;20021;-94
2023/07/09 02:21:29;;;;;;;;;;;;;;;;;;4994816;28;19929;-92
2023/07/09 02:23:55;;;;;;;;;;;;;;;;;;4977364;28;19944;-92
2023/07/09 02:26:21;;;;;;;;;;;;;;;;;;4994840;28;20373;-89
2023/07/09 02:28:47;;;;;;;;;;;;;;;;;;4993208;28;19921;-92
2023/07/09 02:31:15;;;;;;;;;;;;;;;;;;4994005;28;19930;-89
2023/07/09 02:33:41;;;;;;;;;;;;;;;;;;4993480;28;19922;-92
2023/07/09 02:36:07;;;;;;;;;;;;;;;;;;4993248;28;19922;-94
2023/07/09 02:38:33;;;;;;;;;;;;;;;;;;4997186;28;19926;-94
2023/07/09 02:40:59;;;;;;;;;;;;;;;;;;4996861;28;19922;-96
2023/07/09 02:43:25;;;;;;;;;;;;;;;;;;4980011;28;19921;-95
2023/07/09 02:45:51;;;;;;;;;;;;;;;;;;4979307;28;19922;-95
2023/07/09 02:48:17;;;;;;;;;;;;;;;;;;4981305;28;19925;-96
2023/07/09 02:50:43;;;;;;;;;;;;;;;;;;4980951;28;20012;-96
2023/07/09 02:53:09;;;;;;;;;;;;;;;;;;4997045;28;19964;-95
2023/07/09 02:55:35;;;;;;;;;;;;;;;;;;4980925;28;19976;-96
2023/07/09 02:58:01;;;;;;;;;;;;;;;;;;4997735;28;19922;-96
2023/07/09 03:00:28;;;;;;;;;;;;;;;;;;4981520;28;20266;-94
2023/07/09 03:02:54;;;;;;;;;;;;;;;;;;4980675;28;19983;-96
2023/07/09 03:05:20;;;;;;;;;;;;;;;;;;4997870;28;19925;-95
2023/07/09 03:07:46;;;;;;;;;;;;;;;;;;4997510;28;19936;-95
2023/07/09 03:10:12;;;;;;;;;;;;;;;;;;4998507;28;19993;-94
2023/07/09 03:12:38;;;;;;;;;;;;;;;;;;5015342;28;19927;-95
2023/07/09 03:15:04;;;;;;;;;;;;;;;;;;4997683;28;20009;-96
2023/07/09 03:17:30;;;;;;;;;;;;;;;;;;4996949;28;19929;-95
2023/07/09 03:19:56;;;;;;;;;;;;;;;;;;4980901;28;19922;-95
2023/07/09 03:22:22;;;;;;;;;;;;;;;;;;5014111;28;19932;-96
2023/07/09 03:24:47;;;;;;;;;;;;;;;;;;4996543;28;19929;-95
2023/07/09 03:27:13;;;;;;;;;;;;;;;;;;5014511;28;19921;-95
2023/07/09 03:29:39;;;;;;;;;;;;;;;;;;4996731;28;19969;-94
2023/07/09 03:32:05;;;;;;;;;;;;;;;;;;4996358;28;19929;-93
2023/07/09 03:34:31;;;;;;;;;;;;;;;;;;4996340;28;19925;-94
2023/07/09 03:36:57;;;;;;;;;;;;;;;;;;5013462;28;19922;-94
2023/07/09 03:39:23;;;;;;;;;;;;;;;;;;4995979;28;20328;-95
2023/07/09 03:41:49;;;;;;;;;;;;;;;;;;4980261;28;20288;-94
2023/07/09 03:44:15;;;;;;;;;;;;;;;;;;4995927;28;20370;-93
2023/07/09 03:46:41;;;;;;;;;;;;;;;;;;4995648;28;19976;-95
2023/07/09 03:49:07;;;;;;;;;;;;;;;;;;4980318;28;19933;-95
2023/07/09 03:51:33;;;;;;;;;;;;;;;;;;4997153;28;19922;-96
2023/07/09 03:53:59;;;;;;;;;;;;;;;;;;4997425;28;19933;-95
2023/07/09 03:56:25;;;;;;;;;;;;;;;;;;4998281;28;19948;-95
2023/07/09 03:58:50;;;;;;;;;;;;;;;;;;4980052;28;19925;-96
2023/07/09 04:01:16;;;;;;;;;;;;;;;;;;4981694;28;19932;-94
2023/07/09 04:03:42;;;;;;;;;;;;;;;;;;5003525;28;19932;-94
2023/07/09 04:06:08;;;;;;;;;;;;;;;;;;5012550;28;19929;-93
2023/07/09 04:08:34;;;;;;;;;;;;;;;;;;5014798;28;19930;-93
2023/07/09 04:11:00;;;;;;;;;;;;;;;;;;4992167;28;19921;-94
2023/07/09 04:13:27;;;;;;;;;;;;;;;;;;5020123;28;19921;-93
2023/07/09 04:15:53;;;;;;;;;;;;;;;;;;4982756;28;19922;-93
2023/07/09 04:18:19;;;;;;;;;;;;;;;;;;4999078;28;20028;-94
2023/07/09 04:20:45;;;;;;;;;;;;;;;;;;4981596;28;19922;-93
2023/07/09 04:23:11;;;;;;;;;;;;;;;;;;5016068;28;19921;-91
2023/07/09 04:25:37;;;;;;;;;;;;;;;;;;5014960;28;20016;-93
2023/07/09 04:28:03;;;;;;;;;;;;;;;;;;5007401;28;19925;-93
2023/07/09 04:30:29;;;;;;;;;;;;;;;;;;5017693;28;19948;-90
2023/07/09 04:32:55;;;;;;;;;;;;;;;;;;5017045;28;19964;-92
2023/07/09 04:35:21;;;;;;;;;;;;;;;;;;5004046;28;20394;-90
2023/07/09 04:37:47;;;;;;;;;;;;;;;;;;4996670;28;19965;-91
2023/07/09 04:40:13;;;;;;;;;;;;;;;;;;4998861;28;20000;-92
2023/07/09 04:42:39;;;;;;;;;;;;;;;;;;4996639;28;19921;-94
2023/07/09 04:45:05;;;;;;;;;;;;;;;;;;4982055;28;19921;-91
2023/07/09 04:47:31;;;;;;;;;;;;;;;;;;5014972;28;19969;-90
2023/07/09 04:49:57;;;;;;;;;;;;;;;;;;4997876;28;19981;-90
2023/07/09 04:52:23;;;;;;;;;;;;;;;;;;5014823;28;19947;-90
2023/07/09 04:54:50;;;;;;;;;;;;;;;;;;4997874;28;20278;-90
2023/07/09 04:57:16;;;;;;;;;;;;;;;;;;4996980;28;20054;-91
2023/07/09 04:59:42;;;;;;;;;;;;;;;;;;4997903;28;20089;-90
2023/07/09 05:02:10;;;;;;;;;;;;;;;;;;5014796;28;21301;-90
2023/07/09 05:04:36;;;;;;;;;;;;;;;;;;4997681;28;20008;-91
2023/07/09 05:07:02;;;;;;;;;;;;;;;;;;4997623;28;20012;-91
2023/07/09 05:09:28;;;;;;;;;;;;;;;;;;4997916;28;20260;-91
2023/07/09 05:11:54;;;;;;;;;;;;;;;;;;5015292;28;19948;-91
2023/07/09 05:14:19;;;;;;;;;;;;;;;;;;4997560;28;19921;-90
2023/07/09 05:16:45;;;;;;;;;;;;;;;;;;4997240;28;19944;-90
2023/07/09 05:19:11;;;;;;;;;;;;;;;;;;5015328;28;19972;-92
2023/07/09 05:21:37;;;;;;;;;;;;;;;;;;5015143;28;19921;-92
2023/07/09 05:24:03;;;;;;;;;;;;;;;;;;4997009;28;20385;-91
2023/07/09 05:26:29;;;;;;;;;;;;;;;;;;4997165;28;19933;-91
2023/07/09 05:28:56;;;;;;;;;;;;;;;;;;4997133;28;19969;-90
2023/07/09 05:31:22;;;;;;;;;;;;;;;;;;4997655;28;20000;-91
2023/07/09 05:33:48;;;;;;;;;;;;;;;;;;4997120;28;19995;-91
2023/07/09 05:36:15;;;;;;;;;;;;;;;;;;4996619;28;20048;-91
2023/07/09 05:38:41;;;;;;;;;;;;;;;;;;4997246;28;19969;-91
2023/07/09 05:41:07;;;;;;;;;;;;;;;;;;4980944;28;19921;-91
2023/07/09 05:43:33;;;;;;;;;;;;;;;;;;4997475;28;19972;-91
2023/07/09 05:45:59;;;;;;;;;;;;;;;;;;5014194;28;20377;-91
2023/07/09 05:48:25;;;;;;;;;;;;;;;;;;4996879;28;19925;-92
2023/07/09 05:50:51;;;;;;;;;;;;;;;;;;4996689;28;19995;-93
2023/07/09 05:53:17;;;;;;;;;;;;;;;;;;5013685;28;20000;-91
2023/07/09 05:55:43;;;;;;;;;;;;;;;;;;5014523;28;19944;-93
2023/07/09 05:58:09;;;;;;;;;;;;;;;;;;4997309;28;19979;-94
2023/07/09 06:00:37;;;;;;;;;;;;;;;;;;4997374;28;19925;-93
2023/07/09 06:03:03;;;;;;;;;;;;;;;;;;4997046;28;20081;-93
2023/07/09 06:05:29;;;;;;;;;;;;;;;;;;4997408;28;20084;-94
2023/07/09 06:07:55;;;;;;;;;;;;;;;;;;4997220;28;19925;-90
2023/07/09 06:10:21;;;;;;;;;;;;;;;;;;4997754;28;20455;-92
2023/07/09 06:12:48;;;;;;;;;;;;;;;;;;5002140;28;20060;-92
2023/07/09 06:15:14;;;;;;;;;;;;;;;;;;5001763;28;19988;-94
2023/07/09 06:17:40;;;;;;;;;;;;;;;;;;5019580;28;19968;-93
2023/07/09 06:20:09;;;;;;;;;;;;;;;;;;4986029;28;19921;-93
2023/07/09 06:22:35;;;;;;;;;;;;;;;;;;4983390;28;20029;-92
2023/07/09 06:25:01;;;;;;;;;;;;;;;;;;4997195;28;19929;-91
2023/07/09 06:27:27;;;;;;;;;;;;;;;;;;4996301;28;19986;-91
2023/07/09 06:29:53;;;;;;;;;;;;;;;;;;5014165;28;19932;-93
2023/07/09 06:32:18;;;;;;;;;;;;;;;;;;4980470;28;19922;-93
2023/07/09 06:34:44;;;;;;;;;;;;;;;;;;5014430;28;20005;-94
2023/07/09 06:37:10;;;;;;;;;;;;;;;;;;4996683;28;19928;-92
2023/07/09 06:39:36;;;;;;;;;;;;;;;;;;4980626;28;19921;-92
2023/07/09 06:42:02;;;;;;;;;;;;;;;;;;5013834;28;19929;-92
2023/07/09 06:44:28;;;;;;;;;;;;;;;;;;4995986;28;19921;-91
2023/07/09 06:46:54;;;;;;;;;;;;;;;;;;4995938;28;19940;-91
2023/07/09 06:49:20;;;;;;;;;;;;;;;;;;4995694;28;19925;-92
2023/07/09 06:51:46;;;;;;;;;;;;;;;;;;5013723;28;19922;-93
2023/07/09 06:54:12;;;;;;;;;;;;;;;;;;4995915;28;19922;-90
2023/07/09 06:56:38;;;;;;;;;;;;;;;;;;4995874;28;19928;-91
2023/07/09 06:59:04;;;;;;;;;;;;;;;;;;4995546;28;19926;-91
2023/07/09 07:01:30;;;;;;;;;;;;;;;;;;5013569;28;19921;-91
2023/07/09 07:03:56;;;;;;;;;;;;;;;;;;4996178;28;20310;-91
2023/07/09 07:06:22;;;;;;;;;;;;;;;;;;4994944;28;19922;-92
2023/07/09 07:08:47;;;;;;;;;;;;;;;;;;4995965;28;19925;-91
2023/07/09 07:11:13;;;;;;;;;;;;;;;;;;4995327;28;19929;-87
2023/07/09 07:13:39;;;;;;;;;;;;;;;;;;4995059;28;20281;-89
2023/07/09 07:16:05;;;;;;;;;;;;;;;;;;5012696;28;19957;-90
2023/07/09 07:18:31;;;;;;;;;;;;;;;;;;4995088;28;19929;-90
2023/07/09 07:20:57;;;;;;;;;;;;;;;;;;4979127;28;19922;-92
2023/07/09 07:23:24;;;;;;;;;;;;;;;;;;4978858;28;19921;-92
2023/07/09 07:25:49;;;;;;;;;;;;;;;;;;4994989;28;19928;-92
2023/07/09 07:28:15;;;;;;;;;;;;;;;;;;4994932;28;20019;-91
2023/07/09 07:30:42;;;;;;;;;;;;;;;;;;5012412;28;19921;-92
2023/07/09 07:33:08;;;;;;;;;;;;;;;;;;5012546;28;19975;-90
2023/07/09 07:35:33;;;;;;;;;;;;;;;;;;4995142;28;20365;-91
2023/07/09 07:37:59;;;;;;;;;;;;;;;;;;4995106;28;19922;-92
2023/07/09 07:40:25;;;;;;;;;;;;;;;;;;5012424;28;20504;-92
2023/07/09 07:42:51;;;;;;;;;;;;;;;;;;4979035;28;19976;-92
2023/07/09 07:45:17;;;;;;;;;;;;;;;;;;5012388;28;20377;-91
2023/07/09 07:47:43;;;;;;;;;;;;;;;;;;4994405;28;19925;-91
2023/07/09 07:50:09;;;;;;;;;;;;;;;;;;4994608;28;19940;-92
2023/07/09 07:52:38;;;;;;;;;;;;;;;;;;4994887;28;19925;-90
2023/07/09 07:55:04;;;;;;;;;;;;;;;;;;4994265;28;19969;-91
2023/07/09 07:57:30;;;;;;;;;;;;;;;;;;5012325;28;19971;-91
2023/07/09 07:59:56;;;;;;;;;;;;;;;;;;4995204;28;19921;-92
2023/07/09 08:02:22;;;;;;;;;;;;;;;;;;5012073;28;19992;-92
2023/07/09 08:04:48;;;;;;;;;;;;;;;;;;4978424;28;19980;-91
2023/07/09 08:07:13;;;;;;;;;;;;;;;;;;5012383;28;20002;-92
2023/07/09 08:09:39;;;;;;;;;;;;;;;;;;4994379;28;19921;-92
2023/07/09 08:12:09;;;;;;;;;;;;;;;;;;4994588;28;19925;-92
2023/07/09 08:14:35;;;;;;;;;;;;;;;;;;5012133;28;19922;-92
2023/07/09 08:17:01;;;;;;;;;;;;;;;;;;4995004;28;20038;-92
2023/07/09 08:19:27;;;;;;;;;;;;;;;;;;4998770;28;19921;-92
2023/07/09 08:21:53;;;;;;;;;;;;;;;;;;4998447;28;19921;-91
2023/07/09 08:24:19;;;;;;;;;;;;;;;;;;4998745;28;20008;-90
2023/07/09 08:26:45;;;;;;;;;;;;;;;;;;4998279;28;20017;-91
2023/07/09 08:29:11;;;;;;;;;;;;;;;;;;4998378;28;19932;-92
2023/07/09 08:31:37;;;;;;;;;;;;;;;;;;4982027;28;20044;-91
2023/07/09 08:34:03;;;;;;;;;;;;;;;;;;4998178;28;19921;-90
2023/07/09 08:36:30;;;;;;;;;;;;;;;;;;4982071;28;20317;-91
2023/07/09 08:38:56;;;;;;;;;;;;;;;;;;4981806;28;19922;-88
2023/07/09 08:41:22;;;;;;;;;;;;;;;;;;5015673;28;19975;-89
2023/07/09 08:43:48;;;;;;;;;;;;;;;;;;4998263;28;19921;-90
2023/07/09 08:46:14;;;;;;;;;;;;;;;;;;5015328;28;19921;-94
2023/07/09 08:48:40;;;;;;;;;;;;;;;;;;4981745;28;19944;-92
2023/07/09 08:51:05;;;;;;;;;;;;;;;;;;4997598;28;19976;-90
2023/07/09 08:53:31;;;;;;;;;;;;;;;;;;4997868;28;20052;-91
2023/07/09 08:55:57;;;;;;;;;;;;;;;;;;4979623;28;19961;-90
2023/07/09 08:58:23;;;;;;;;;;;;;;;;;;4981197;28;19922;-90
2023/07/09 09:00:49;;;;;;;;;;;;;;;;;;4981340;28;19922;-90
2023/07/09 09:03:15;;;;;;;;;;;;;;;;;;5015170;28;19922;-90
2023/07/09 09:05:41;;;;;;;;;;;;;;;;;;5015329;28;19921;-90
2023/07/09 09:08:07;;;;;;;;;;;;;;;;;;5014788;28;19926;-90
2023/07/09 09:10:33;;;;;;;;;;;;;;;;;;4998024;28;19944;-91
2023/07/09 09:12:59;;;;;;;;;;;;;;;;;;4997444;28;19925;-90
2023/07/09 09:15:24;;;;;;;;;;;;;;;;;;5015131;28;19925;-90
2023/07/09 09:17:50;;;;;;;;;;;;;;;;;;4996912;28;19921;-90
2023/07/09 09:20:17;;;;;;;;;;;;;;;;;;4998180;28;19921;-94
2023/07/09 09:22:43;;;;;;;;;;;;;;;;;;4997809;28;20383;-90
2023/07/09 09:25:08;;;;;;;;;;;;;;;;;;5015023;28;19922;-90
2023/07/09 09:27:34;;;;;;;;;;;;;;;;;;4980620;28;19980;-91
2023/07/09 09:30:00;;;;;;;;;;;;;;;;;;4996079;28;20340;-90
2023/07/09 09:32:26;;;;;;;;;;;;;;;;;;5015113;28;19929;-93
2023/07/09 09:34:52;;;;;;;;;;;;;;;;;;4982293;28;19922;-96
2023/07/09 09:37:18;;;;;;;;;;;;;;;;;;4996735;28;19991;-90
2023/07/09 09:39:44;;;;;;;;;;;;;;;;;;5015485;28;19926;-90
2023/07/09 09:42:10;;;;;;;;;;;;;;;;;;4997794;28;19928;-90
2023/07/09 09:44:36;;;;;;;;;;;;;;;;;;4981004;28;19944;-91
2023/07/09 09:47:02;;;;;;;;;;;;;;;;;;5014393;28;19926;-88
2023/07/09 09:49:28;;;;;;;;;;;;;;;;;;4980376;28;19934;-87
2023/07/09 09:51:56;;;;;;;;;;;;;;;;;;4980410;28;19925;-87
2023/07/09 09:54:22;;;;;;;;;;;;;;;;;;5013741;28;19922;-88
2023/07/09 09:56:47;;;;;;;;;;;;;;;;;;4995433;28;19928;-87
2023/07/09 09:59:13;;;;;;;;;;;;;;;;;;4996219;28;19967;-88
2023/07/09 10:01:39;;;;;;;;;;;;;;;;;;4996207;28;20385;-88
2023/07/09 10:04:05;;;;;;;;;;;;;;;;;;5014070;28;19921;-88
2023/07/09 10:06:31;;;;;;;;;;;;;;;;;;5014265;28;19921;-88
2023/07/09 10:08:57;;;;;;;;;;;;;;;;;;4995994;28;19940;-88
2023/07/09 10:11:23;;;;;;;;;;;;;;;;;;5015054;28;19921;-89
2023/07/09 10:13:49;;;;;;;;;;;;;;;;;;4996176;28;20254;-88
2023/07/09 10:16:15;;;;;;;;;;;;;;;;;;4996160;28;19925;-85
2023/07/09 10:18:42;;;;;;;;;;;;;;;;;;5013627;28;20294;-86
2023/07/09 10:21:08;;;;;;;;;;;;;;;;;;4996397;28;19925;-90
2023/07/09 10:23:33;;;;;;;;;;;;;;;;;;4996069;28;20281;-89
2023/07/09 10:25:59;;;;;;;;;;;;;;;;;;4995575;28;19922;-88
2023/07/09 10:28:25;;;;;;;;;;;;;;;;;;4979554;28;19977;-89
2023/07/09 10:30:51;;;;;;;;;;;;;;;;;;4996009;28;20016;-87
2023/07/09 10:33:17;;;;;;;;;;;;;;;;;;4995821;28;19936;-88
2023/07/09 10:35:43;;;;;;;;;;;;;;;;;;4996110;28;19921;-87
2023/07/09 10:38:09;;;;;;;;;;;;;;;;;;4979502;28;20004;-88
2023/07/09 10:40:35;;;;;;;;;;;;;;;;;;4994950;28;19926;-88
2023/07/09 10:43:01;;;;;;;;;;;;;;;;;;4996013;28;20168;-88
2023/07/09 10:45:27;;;;;;;;;;;;;;;;;;4979768;28;19921;-89
2023/07/09 10:47:53;;;;;;;;;;;;;;;;;;4995677;28;20238;-89
2023/07/09 10:50:18;;;;;;;;;;;;;;;;;;5013455;28;19929;-89
2023/07/09 10:52:44;;;;;;;;;;;;;;;;;;4996407;28;19932;-88
2023/07/09 10:55:10;;;;;;;;;;;;;;;;;;4981843;28;20280;-89
2023/07/09 10:57:36;;;;;;;;;;;;;;;;;;4998408;28;20407;-89
2023/07/09 11:00:02;;;;;;;;;;;;;;;;;;5015985;28;19949;-89
2023/07/09 11:02:29;;;;;;;;;;;;;;;;;;4998771;28;19992;-90
2023/07/09 11:04:54;;;;;;;;;;;;;;;;;;4998793;28;19976;-90
2023/07/09 11:07:21;;;;;;;;;;;;;;;;;;5015552;28;19922;-89
2023/07/09 11:09:47;;;;;;;;;;;;;;;;;;4998102;28;19932;-90
2023/07/09 11:12:13;;;;;;;;;;;;;;;;;;4998078;28;19921;-89
2023/07/09 11:14:40;;;;;;;;;;;;;;;;;;4982158;28;20293;-91
2023/07/09 11:17:07;;;;;;;;;;;;;;;;;;4983123;28;20222;-89
2023/07/09 11:19:34;;;;;;;;;;;;;;;;;;4982497;28;19927;-89
2023/07/09 11:22:00;;;;;;;;;;;;;;;;;;4998033;28;20332;-90
2023/07/09 11:24:26;;;;;;;;;;;;;;;;;;4982212;28;19921;-90
2023/07/09 11:26:52;;;;;;;;;;;;;;;;;;4981964;28;19922;-90
2023/07/09 11:29:18;;;;;;;;;;;;;;;;;;4998384;28;19926;-90
2023/07/09 11:31:48;;;;;;;;;;;;;;;;;;4998461;28;19921;-92
2023/07/09 11:34:14;;;;;;;;;;;;;;;;;;4998059;28;19937;-91
2023/07/09 11:36:40;;;;;;;;;;;;;;;;;;4997477;28;19928;-90
2023/07/09 11:39:06;;;;;;;;;;;;;;;;;;4981854;28;20020;-89
2023/07/09 11:41:32;;;;;;;;;;;;;;;;;;4981980;28;19931;-90
2023/07/09 11:43:58;;;;;;;;;;;;;;;;;;4979796;28;20389;-88
2023/07/09 11:46:24;;;;;;;;;;;;;;;;;;4994786;28;19926;-89
2023/07/09 11:48:50;;;;;;;;;;;;;;;;;;4994530;28;19995;-89
2023/07/09 11:51:16;;;;;;;;;;;;;;;;;;5012392;28;20384;-88
2023/07/09 11:53:42;;;;;;;;;;;;;;;;;;4998066;28;19922;-89
2023/07/09 11:56:08;;;;;;;;;;;;;;;;;;5016955;28;20331;-89
2023/07/09 11:58:34;;;;;;;;;;;;;;;;;;5016775;28;19955;-92
2023/07/09 12:01:01;;;;;;;;;;;;;;;;;;5016455;28;19997;-91
2023/07/09 12:03:27;;;;;;;;;;;;;;;;;;5016552;28;19921;-91
2023/07/09 12:05:53;;;;;;;;;;;;;;;;;;5016573;28;19921;-91
2023/07/09 12:08:19;;;;;;;;;;;;;;;;;;4998559;28;19933;-92
2023/07/09 12:10:45;;;;;;;;;;;;;;;;;;4998649;28;19925;-93
2023/07/09 12:13:10;;;;;;;;;;;;;;;;;;4998846;28;20017;-91
2023/07/09 12:15:36;;;;;;;;;;;;;;;;;;4998686;28;19976;-92
2023/07/09 12:18:02;;;;;;;;;;;;;;;;;;4982669;28;20340;-92
2023/07/09 12:20:28;;;;;;;;;;;;;;;;;;4999235;28;19925;-93
2023/07/09 12:22:54;;;;;;;;;;;;;;;;;;4998978;28;20441;-93
2023/07/09 12:25:20;;;;;;;;;;;;;;;;;;4999013;28;20016;-91
2023/07/09 12:27:46;;;;;;;;;;;;;;;;;;4996199;28;20004;-92
2023/07/09 12:30:12;;;;;;;;;;;;;;;;;;4999343;28;20013;-91
2023/07/09 12:32:38;;;;;;;;;;;;;;;;;;5015815;28;19922;-92
2023/07/09 12:35:04;;;;;;;;;;;;;;;;;;4997926;28;19932;-91
2023/07/09 12:37:30;;;;;;;;;;;;;;;;;;4997926;28;19922;-92
2023/07/09 12:39:56;;;;;;;;;;;;;;;;;;4978964;28;19922;-92
2023/07/09 12:42:22;;;;;;;;;;;;;;;;;;4979159;28;20388;-91
2023/07/09 12:44:48;;;;;;;;;;;;;;;;;;4978930;28;19925;-93
2023/07/09 12:47:14;;;;;;;;;;;;;;;;;;4985416;28;19930;-94
2023/07/09 12:49:40;;;;;;;;;;;;;;;;;;4978598;28;19933;-92
2023/07/09 12:52:06;;;;;;;;;;;;;;;;;;4978678;28;19922;-91
2023/07/09 12:54:32;;;;;;;;;;;;;;;;;;4962624;28;19981;-93
2023/07/09 12:56:58;;;;;;;;;;;;;;;;;;4979434;28;19922;-94
2023/07/09 12:59:24;;;;;;;;;;;;;;;;;;4998165;28;19922;-93
2023/07/09 13:01:50;;;;;;;;;;;;;;;;;;4997181;28;20016;-93
2023/07/09 13:04:16;;;;;;;;;;;;;;;;;;4996244;28;19922;-93
2023/07/09 13:06:42;;;;;;;;;;;;;;;;;;4981251;28;20108;-94
2023/07/09 13:09:08;;;;;;;;;;;;;;;;;;5014644;28;20103;-93
2023/07/09 13:11:34;;;;;;;;;;;;;;;;;;5015073;28;19921;-93
2023/07/09 13:14:00;;;;;;;;;;;;;;;;;;5014722;28;19929;-92
2023/07/09 13:16:26;;;;;;;;;;;;;;;;;;5014953;28;19957;-92
2023/07/09 13:18:52;;;;;;;;;;;;;;;;;;4996962;28;19984;-94
2023/07/09 13:21:17;;;;;;;;;;;;;;;;;;4997079;28;19922;-93
2023/07/09 13:23:43;;;;;;;;;;;;;;;;;;4981144;28;19945;-93
2023/07/09 13:26:09;;;;;;;;;;;;;;;;;;4997559;28;19932;-93
2023/07/09 13:28:35;;;;;;;;;;;;;;;;;;4996387;28;19929;-93
2023/07/09 13:31:01;;;;;;;;;;;;;;;;;;4980938;28;19921;-93
2023/07/09 13:33:27;;;;;;;;;;;;;;;;;;4997424;28;20297;-92
2023/07/09 13:35:54;;;;;;;;;;;;;;;;;;4997356;28;20060;-91
2023/07/09 13:38:19;;;;;;;;;;;;;;;;;;4981248;28;20444;-92
2023/07/09 13:40:45;;;;;;;;;;;;;;;;;;4997182;28;19972;-90
2023/07/09 13:43:11;;;;;;;;;;;;;;;;;;4996569;28;19922;-89
2023/07/09 13:45:37;;;;;;;;;;;;;;;;;;4992024;28;19929;-88
2023/07/09 13:48:03;;;;;;;;;;;;;;;;;;4996217;28;19936;-90
2023/07/09 13:50:29;;;;;;;;;;;;;;;;;;4980260;28;19921;-90
2023/07/09 13:52:55;;;;;;;;;;;;;;;;;;4996885;28;19929;-90
2023/07/09 13:55:21;;;;;;;;;;;;;;;;;;4996286;28;20411;-90
2023/07/09 13:57:47;;;;;;;;;;;;;;;;;;4980429;28;20320;-90
2023/07/09 14:00:13;;;;;;;;;;;;;;;;;;4996754;28;20321;-90
2023/07/09 14:02:38;;;;;;;;;;;;;;;;;;4996239;28;19929;-90
2023/07/09 14:05:04;;;;;;;;;;;;;;;;;;4995927;28;20440;-91
2023/07/09 14:07:32;;;;;;;;;;;;;;;;;;4995302;28;19973;-89
2023/07/09 14:09:58;;;;;;;;;;;;;;;;;;5014190;28;19969;-92
2023/07/09 14:12:24;;;;;;;;;;;;;;;;;;4995332;28;19921;-93
2023/07/09 14:14:50;;;;;;;;;;;;;;;;;;4979548;28;19922;-92
2023/07/09 14:17:16;;;;;;;;;;;;;;;;;;4996329;28;19929;-92
2023/07/09 14:19:42;;;;;;;;;;;;;;;;;;4996739;28;19975;-91
2023/07/09 14:22:09;;;;;;;;;;;;;;;;;;4983679;28;19925;-91
2023/07/09 14:24:35;;;;;;;;;;;;;;;;;;4998757;28;19932;-91
2023/07/09 14:27:01;;;;;;;;;;;;;;;;;;4996785;28;19921;-92
2023/07/09 14:29:27;;;;;;;;;;;;;;;;;;4994350;28;19925;-92
2023/07/09 14:31:52;;;;;;;;;;;;;;;;;;4996281;28;19948;-92
2023/07/09 14:34:19;;;;;;;;;;;;;;;;;;5013328;28;19922;-92
2023/07/09 14:36:45;;;;;;;;;;;;;;;;;;4996009;28;19978;-91
2023/07/09 14:39:11;;;;;;;;;;;;;;;;;;5013532;28;19921;-91
2023/07/09 14:41:37;;;;;;;;;;;;;;;;;;4996295;28;20249;-92
2023/07/09 14:44:03;;;;;;;;;;;;;;;;;;4996578;28;20024;-90
2023/07/09 14:46:29;;;;;;;;;;;;;;;;;;4979420;28;20085;-89
2023/07/09 14:48:55;;;;;;;;;;;;;;;;;;5013417;28;20377;-90
2023/07/09 14:51:21;;;;;;;;;;;;;;;;;;4979733;28;20281;-90
2023/07/09 14:53:47;;;;;;;;;;;;;;;;;;5014721;28;19928;-91
2023/07/09 14:56:13;;;;;;;;;;;;;;;;;;4996380;28;19921;-91
2023/07/09 14:58:39;;;;;;;;;;;;;;;;;;4996500;28;19930;-91
2023/07/09 15:01:05;;;;;;;;;;;;;;;;;;4996272;28;19945;-92
2023/07/09 15:03:31;;;;;;;;;;;;;;;;;;4979325;28;20296;-94
2023/07/09 15:05:57;;;;;;;;;;;;;;;;;;4979893;28;19922;-91
2023/07/09 15:08:22;;;;;;;;;;;;;;;;;;4995604;28;20341;-91
2023/07/09 15:10:49;;;;;;;;;;;;;;;;;;4995498;28;20004;-92
2023/07/09 15:13:15;;;;;;;;;;;;;;;;;;5016118;28;20301;-96
2023/07/09 15:15:41;;;;;;;;;;;;;;;;;;4996077;28;19926;-96
2023/07/09 15:18:07;;;;;;;;;;;;;;;;;;5014228;28;19921;-95
2023/07/09 15:20:33;;;;;;;;;;;;;;;;;;4998069;28;19922;-96
2023/07/09 15:22:59;;;;;;;;;;;;;;;;;;4996033;28;19925;-93
2023/07/09 15:25:25;;;;;;;;;;;;;;;;;;4995704;28;19933;-93
2023/07/09 15:27:51;;;;;;;;;;;;;;;;;;4995577;28;19945;-92
2023/07/09 15:30:17;;;;;;;;;;;;;;;;;;4995304;28;20345;-93
2023/07/09 15:32:44;;;;;;;;;;;;;;;;;;4995482;28;19922;-92
2023/07/09 15:35:10;;;;;;;;;;;;;;;;;;4979256;28;19925;-91
2023/07/09 15:37:35;;;;;;;;;;;;;;;;;;4995076;28;19963;-92
2023/07/09 15:40:01;;;;;;;;;;;;;;;;;;4994865;28;19922;-92
2023/07/09 15:42:27;;;;;;;;;;;;;;;;;;4994692;28;19921;-92
2023/07/09 15:44:53;;;;;;;;;;;;;;;;;;4994849;28;19931;-91
2023/07/09 15:47:19;;;;;;;;;;;;;;;;;;4994604;28;20032;-93
2023/07/09 15:49:45;;;;;;;;;;;;;;;;;;4978659;28;20365;-94
2023/07/09 15:52:11;;;;;;;;;;;;;;;;;;4995091;28;20336;-92
2023/07/09 15:54:37;;;;;;;;;;;;;;;;;;4995528;28;19921;-94
2023/07/09 15:57:03;;;;;;;;;;;;;;;;;;4995455;28;19921;-93
2023/07/09 15:59:29;;;;;;;;;;;;;;;;;;4994835;28;19961;-88
2023/07/09 16:01:55;;;;;;;;;;;;;;;;;;4994503;28;19926;-88
2023/07/09 16:04:21;;;;;;;;;;;;;;;;;;5012265;28;20274;-89
2023/07/09 16:06:47;;;;;;;;;;;;;;;;;;4994558;28;19928;-89
2023/07/09 16:09:13;;;;;;;;;;;;;;;;;;5012137;28;19975;-89
2023/07/09 16:11:39;;;;;;;;;;;;;;;;;;4978395;28;20370;-88
2023/07/09 16:14:05;;;;;;;;;;;;;;;;;;5012190;28;19996;-89
2023/07/09 16:16:31;;;;;;;;;;;;;;;;;;5012304;28;19921;-89
2023/07/09 16:18:56;;;;;;;;;;;;;;;;;;5012454;28;19921;-88
2023/07/09 16:21:22;;;;;;;;;;;;;;;;;;4978180;28;19921;-88
2023/07/09 16:23:48;;;;;;;;;;;;;;;;;;5012479;28;20301;-89
2023/07/09 16:26:14;;;;;;;;;;;;;;;;;;4992910;28;19922;-90
2023/07/09 16:28:40;;;;;;;;;;;;;;;;;;4994014;28;19941;-90
2023/07/09 16:31:06;;;;;;;;;;;;;;;;;;5012097;28;19929;-90
2023/07/09 16:33:32;;;;;;;;;;;;;;;;;;4994375;28;20409;-90
2023/07/09 16:35:58;;;;;;;;;;;;;;;;;;4993880;28;20320;-89
2023/07/09 16:38:24;;;;;;;;;;;;;;;;;;4995170;28;19921;-89